Detall de PIREP

Printer-friendly versionPDF version

[2014/08/15 16:02:00]
Flight IATA:CT2101
Pilot Number:012
Company ICAO:CAT
Aircraft Type:B744/E
PAX:426
Departing Airport: LEAS
Destination Airport: LEVC
Alternate Airport:LEPA
Online: VATSIM
Route:XONDA R107 VETAN/N0409F220 R107 ZMR/N0448F320 UL155 NVS UM871 ABOSI
Flight Level:F320
No Slew and time accel
No pause
Crash detect
Detect pilot in Cockpit between each 30 and 45 minutes
16:02 Zero fuel Weight: 496277 Lbs, Fuel Weight: 54808 Lbs
16:02 VATSIM:LEAS 151530Z VRB04KT 9999 SCT025 SCT065 20/12 Q1024 NOSIG
16:02 VATSIM:LEVC 151530Z 08012KT 040V110 9999 SCT018 BKN040 27/21 Q1017 NOSIG
16:05 Take-off
16:05 Take off Weight: 549690 Lbs
16:05 Wind: 002º @ 004 Knots Heading: 289º
16:05 POS N43º 33´ 55´´ W006º 02´ 30´´
16:05 Gear Up: 181 Knots
16:05 Flaps:3 at 181 Knots
16:05 Flaps:2 at 186 Knots
16:06 Flaps:1 at 200 Knots
16:06 Flaps:0 at 254 Knots
16:16 TOC
16:16Fuel Weight: 43874 Lb
16:20 Wind:285º@066 Knots Heading: 130º Ground Speed: 553 Knots Altitude 32217 ft
16:35 Wind:279º@052 Knots Heading: 132º Ground Speed: 538 Knots Altitude 32125 ft
16:37 TOD
16:37 Fuel Weight: 36439 Lb
16:49 Flaps:1 at 210 Knots
16:50 Wind:306º@004 Knots Heading: 115º Ground Speed: 244 Knots Altitude 7644 ft
16:51 Flaps:2 at 201 Knots
16:51 Flaps:3 at 181 Knots
16:52 Gear Down: 183 Knots
16:52 Flaps:4 at 180 Knots
16:52 Flaps:5 at 173 Knots
16:53 Flaps:6 at 159 Knots
16:58 TouchDown:Rate -318 ft/min Speed: 142 Knots
16:58 VATSIM:LEVC 151630Z 07010KT 030V100 9999 SCT018 BKN030 27/21 Q1016 NOSIG
16:58 Land
16:58 Wind:072º@011 Knots
16:58 Heading: 115º
16:58 Flight Duration: 00:53
16:58 Landing Weight: 528371 Lbs
16:58 POS N39º 29´ 36´´ W000º 29´ 33´´
16:59 Parking brakes on
16:59 Block to Block Duration: 00:54
16:59 Final Fuel: 31909 Lbls
16:59 Spent Fuel: 22899 Lbls
16:59 Flight Length: 374 NM
16:59 TOD Land Length: 112 NM

Exportar CSV

Powered by Drupal - Modified by Danger4k